Redditch, United Kingdom
Current Conditions -  °F | °C
As of 5:50 AM on Friday 28 Nov 2014 (Local Time) from EGBB Reporting Station
Haze Haze  
Wind Chill: 46°   Ceiling: 800
Heat Index: 48°   Visibility: 2.5mi
Dew Point: 48°   Wind: 6mph
Humidity: 100%   Direction: 80°E
Pressure: 29.59"   Gusts: NA
Location:  52.31°N, 1.94°W
Report Text: EGBB 280550Z 08005KT 4000 BR BKN008 BKN014 09/09 Q1002
Loading
Personal Weather Stations






























Interactive Weather Map New forecast layout! Learn more

10-Day Weather Forecast

Advertisements
Track Severe Weather on mobile